createdAt,value
2022-08-03T00:01:17.379Z,1.6
2022-08-03T00:03:19.285Z,1.3
2022-08-03T00:09:28.013Z,1
2022-08-03T00:11:29.794Z,0.7
2022-08-03T00:12:32.449Z,1
2022-08-03T00:16:36.012Z,1
2022-08-03T00:18:37.790Z,1.4
2022-08-03T00:20:43.072Z,1.3
2022-08-03T00:26:48.420Z,1
2022-08-03T00:28:50.192Z,1.4
2022-08-03T00:34:59.254Z,1
2022-08-03T00:39:07.878Z,0.6
2022-08-03T00:47:09.783Z,1.1
2022-08-03T00:49:15.104Z,0.8
2022-08-03T00:53:18.643Z,1.3
2022-08-03T00:55:20.392Z,1.1
2022-08-03T00:57:22.214Z,0.7
2022-08-03T00:59:23.990Z,1.2
2022-08-03T01:01:25.863Z,1.1
2022-08-03T01:03:31.052Z,1.2
2022-08-03T01:08:37.283Z,1.2
2022-08-03T01:10:39.056Z,0.9
2022-08-03T01:12:40.865Z,1.2
2022-08-03T01:14:42.648Z,1
2022-08-03T01:16:47.923Z,1.4
2022-08-03T01:18:49.738Z,1.2
2022-08-03T01:20:51.514Z,1.2
2022-08-03T01:35:09.158Z,1.2
2022-08-03T01:37:10.877Z,1.7
2022-08-03T01:45:21.535Z,1.8
2022-08-03T01:47:23.322Z,1.9
2022-08-03T01:52:02.973Z,1.8
2022-08-03T01:53:28.677Z,1.7
2022-08-03T01:55:30.453Z,1.5
2022-08-03T01:57:32.260Z,1.3
2022-08-03T01:59:37.546Z,1.8
2022-08-03T02:02:31.937Z,1.7
2022-08-03T02:04:00.747Z,1.7
2022-08-03T02:07:01.987Z,2
2022-08-03T02:08:47.332Z,2.1
2022-08-03T02:10:49.122Z,1.5
2022-08-03T02:12:54.397Z,1.8
2022-08-03T02:14:56.208Z,2
2022-08-03T02:16:58.005Z,2.1
2022-08-03T02:18:59.800Z,2.1
2022-08-03T02:21:01.580Z,1.6
2022-08-03T02:23:03.382Z,1.8
2022-08-03T02:25:05.179Z,2
2022-08-03T02:27:10.449Z,3.1
2022-08-03T02:29:12.242Z,2
2022-08-03T02:31:14.015Z,3.6
2022-08-03T02:33:15.813Z,2.3
2022-08-03T02:37:19.400Z,2
2022-08-03T02:41:26.458Z,2.2
2022-08-03T02:43:28.254Z,2.2
2022-08-03T02:45:30.044Z,3.2
2022-08-03T02:47:53.914Z,2
2022-08-03T02:49:50.054Z,2.6
2022-08-03T02:55:43.296Z,2.3
2022-08-03T02:57:44.263Z,2.7
2022-08-03T03:02:03.498Z,2.7
2022-08-03T03:04:05.279Z,2.6
2022-08-03T03:14:17.749Z,2.4
2022-08-03T03:16:19.580Z,2.5
2022-08-03T03:18:22.771Z,2.8
2022-08-03T03:20:29.632Z,2.5
2022-08-03T03:22:28.465Z,2.4
2022-08-03T03:24:30.215Z,2.4
2022-08-03T03:28:33.775Z,2.3
2022-08-03T03:30:35.592Z,3.7
2022-08-03T03:32:37.373Z,2.4
2022-08-03T03:34:39.160Z,2.3
2022-08-03T03:38:46.220Z,2.3
2022-08-03T03:40:47.995Z,3.3
2022-08-03T03:42:49.801Z,2.5
2022-08-03T03:44:51.572Z,3.7
2022-08-03T03:51:00.482Z,2.3
2022-08-03T03:53:02.275Z,2.5
2022-08-03T03:55:04.108Z,2.8
2022-08-03T03:56:06.750Z,2.6
2022-08-03T03:58:08.555Z,2.9
2022-08-03T04:00:10.353Z,3
2022-08-03T04:02:12.169Z,2.7
2022-08-03T04:04:17.483Z,3.2
2022-08-03T04:06:19.266Z,2.7
2022-08-03T04:08:21.054Z,2.6
2022-08-03T04:10:22.841Z,3.5
2022-08-03T04:12:24.644Z,3.3
2022-08-03T04:14:28.783Z,2.7
2022-08-03T04:16:28.230Z,2.4
2022-08-03T04:18:33.531Z,2.7
2022-08-03T04:20:35.324Z,2.8
2022-08-03T04:22:37.118Z,3.3
2022-08-03T04:24:38.957Z,2.7
2022-08-03T04:26:40.728Z,3.7
2022-08-03T04:28:42.581Z,2.6
2022-08-03T04:30:44.308Z,3.6
2022-08-03T04:32:49.591Z,3.4
2022-08-03T04:36:53.182Z,3.3
2022-08-03T04:38:54.952Z,3.3
2022-08-03T04:51:09.946Z,3.4
2022-08-03T04:52:11.870Z,2.7
2022-08-03T04:56:15.425Z,4
2022-08-03T04:58:17.205Z,2.1
2022-08-03T05:00:22.515Z,3.4
2022-08-03T05:02:24.288Z,2.7
2022-08-03T05:04:26.093Z,2.8
2022-08-03T05:06:27.855Z,2.5
2022-08-03T05:12:33.300Z,3.2
2022-08-03T05:16:40.525Z,3.4
2022-08-03T05:18:42.179Z,3.4
2022-08-03T05:20:43.921Z,3.7
2022-08-03T05:26:49.241Z,3.4
2022-08-03T05:28:54.516Z,4
2022-08-03T05:30:56.316Z,3.9
2022-08-03T05:35:00.026Z,2.7
2022-08-03T05:37:04.265Z,3.4
2022-08-03T05:41:22.169Z,2.2
2022-08-03T05:43:10.513Z,1.9
2022-08-03T05:48:17.915Z,2.4
2022-08-03T05:50:18.515Z,2.2
2022-08-03T06:00:30.937Z,1.8
2022-08-03T06:02:32.731Z,2.2
2022-08-03T06:04:34.475Z,2.6
2022-08-03T06:06:36.229Z,2.4
2022-08-03T06:10:43.253Z,1.5
2022-08-03T06:12:45.022Z,2.5
2022-08-03T06:14:46.799Z,2.2
2022-08-03T06:16:48.554Z,2.4
2022-08-03T06:18:50.334Z,2
2022-08-03T06:24:59.927Z,1.8
2022-08-03T06:27:00.831Z,1.9
2022-08-03T06:29:03.957Z,1.4
2022-08-03T06:31:04.358Z,1.6
2022-08-03T06:33:08.238Z,1.9
2022-08-03T06:35:07.861Z,1.6
2022-08-03T06:39:14.841Z,1.3
2022-08-03T06:47:37.667Z,1.4
2022-08-03T06:52:03.112Z,1.5
2022-08-03T06:53:46.385Z,2.1
2022-08-03T06:55:52.418Z,2.1
2022-08-03T07:01:53.312Z,1.8
2022-08-03T07:03:54.977Z,2.2
2022-08-03T07:10:03.647Z,1.5
2022-08-03T07:12:05.343Z,1.8
2022-08-03T07:14:07.063Z,1.8
2022-08-03T07:16:08.777Z,2
2022-08-03T07:18:10.479Z,1.6
2022-08-03T07:20:15.721Z,1.3
2022-08-03T07:26:20.831Z,1.3
2022-08-03T07:30:25.827Z,1.4
2022-08-03T07:34:34.311Z,1.6
2022-08-03T07:39:40.312Z,2
2022-08-03T07:41:41.988Z,1.2
2022-08-03T07:43:43.696Z,1.3
2022-08-03T07:45:45.407Z,1.9
2022-08-03T07:47:53.638Z,1.2
2022-08-03T07:49:52.261Z,1.4
2022-08-03T07:51:53.955Z,1.3
2022-08-03T07:53:55.640Z,3
2022-08-03T07:55:57.334Z,1.5
2022-08-03T07:57:58.976Z,1.4
2022-08-03T08:02:05.863Z,1
2022-08-03T08:04:07.523Z,1.5
2022-08-03T08:08:10.853Z,2
2022-08-03T08:12:15.499Z,1.8
2022-08-03T08:14:15.812Z,1.5
2022-08-03T08:16:20.996Z,1.2
2022-08-03T08:20:28.549Z,1.3
2022-08-03T08:22:30.369Z,1.2
2022-08-03T08:24:27.531Z,1.6
2022-08-03T08:26:29.228Z,1.4
2022-08-03T08:28:33.552Z,2.3
2022-08-03T08:30:35.969Z,1.3
2022-08-03T08:34:39.200Z,1.6
2022-08-03T08:35:41.838Z,1.3
2022-08-03T08:37:43.419Z,1.6
2022-08-03T08:41:47.977Z,2.1
2022-08-03T08:43:51.817Z,0.9
2022-08-03T08:45:53.436Z,2.5
2022-08-03T08:52:01.260Z,1.9
2022-08-03T08:53:59.903Z,1.6
2022-08-03T08:56:01.702Z,1.9
2022-08-03T08:58:06.675Z,1.5
2022-08-03T09:00:08.383Z,1.2
2022-08-03T09:06:13.114Z,1.7
2022-08-03T09:08:14.742Z,2
2022-08-03T09:16:24.576Z,2.6
2022-08-03T09:18:26.079Z,1.4
2022-08-03T09:20:27.576Z,1.2
2022-08-03T09:22:29.149Z,1.9
2022-08-03T09:26:35.605Z,2.1
2022-08-03T09:29:01.296Z,1.3
2022-08-03T09:30:38.650Z,2.4
2022-08-03T09:31:43.190Z,2.4
2022-08-03T09:33:42.678Z,3.9
2022-08-03T09:35:53.662Z,1.8
2022-08-03T09:38:12.100Z,2.5
2022-08-03T09:39:50.543Z,1.8
2022-08-03T09:43:53.716Z,1.9
2022-08-03T09:45:55.271Z,2
2022-08-03T09:47:56.784Z,4.1
2022-08-03T09:52:31.296Z,1.7
2022-08-03T10:06:13.306Z,2.1
2022-08-03T10:16:25.463Z,2.5
2022-08-03T10:18:25.427Z,1.4
2022-08-03T10:20:26.869Z,2.4
2022-08-03T10:22:31.746Z,1.8
2022-08-03T10:24:33.189Z,1.8
2022-08-03T10:26:34.625Z,2.7
2022-08-03T10:33:00.917Z,2
2022-08-03T10:35:18.923Z,2.8
2022-08-03T10:37:07.251Z,1.8
2022-08-03T10:39:16.043Z,2.7
2022-08-03T10:41:10.144Z,2.6
2022-08-03T10:45:13.073Z,1.9
2022-08-03T10:47:14.455Z,2.2
2022-08-03T10:49:25.478Z,1.4
2022-08-03T10:51:20.741Z,2.4
2022-08-03T10:53:22.177Z,1.7
2022-08-03T10:55:23.607Z,2.5
2022-08-03T10:59:27.818Z,2.1
2022-08-03T11:01:27.892Z,1.6
2022-08-03T11:05:34.227Z,1.6
2022-08-03T11:19:57.950Z,2.2
2022-08-03T11:22:51.483Z,2.4
2022-08-03T11:24:52.878Z,2
2022-08-03T11:26:54.270Z,1.8
2022-08-03T11:28:55.685Z,1.9
2022-08-03T11:35:03.344Z,1.9
2022-08-03T11:41:07.538Z,1.5
2022-08-03T11:43:08.934Z,1.6
2022-08-03T11:45:13.779Z,1.5
2022-08-03T11:49:16.590Z,1
2022-08-03T12:09:33.928Z,1.2
2022-08-03T12:15:41.586Z,1.4
2022-08-03T12:18:45.400Z,2.1
2022-08-03T12:20:46.801Z,1.6
2022-08-03T12:22:48.195Z,1.7
2022-08-03T12:26:58.590Z,1.3
2022-08-03T12:28:55.796Z,2.3
2022-08-03T12:35:00.521Z,1.2
2022-08-03T12:39:02.825Z,1.6
2022-08-03T12:41:07.651Z,1.5
2022-08-03T12:49:13.355Z,2
2022-08-03T12:51:14.675Z,1.6
2022-08-03T12:53:16.091Z,1.8
2022-08-03T12:55:20.919Z,1.8
2022-08-03T12:57:22.346Z,1.3
2022-08-03T12:59:23.735Z,1.5
2022-08-03T13:01:26.070Z,1.2
2022-08-03T13:03:42.386Z,2.4
2022-08-03T13:05:27.949Z,1.8
2022-08-03T13:07:29.365Z,1.8
2022-08-03T13:09:34.217Z,1.7
2022-08-03T13:11:57.449Z,1.5
2022-08-03T13:13:37.025Z,2.2
2022-08-03T13:16:40.861Z,1.3
2022-08-03T13:18:42.270Z,1.2
2022-08-03T13:20:43.846Z,2
2022-08-03T13:22:50.269Z,2.2
2022-08-03T13:24:51.595Z,2
2022-08-03T13:26:53.183Z,0.7
2022-08-03T13:28:54.445Z,1
2022-08-03T13:30:55.852Z,0.7
2022-08-03T13:32:57.268Z,0.9
2022-08-03T13:37:09.635Z,1.2
2022-08-03T13:39:05.011Z,1.7
2022-08-03T13:41:06.413Z,0.9
2022-08-03T13:43:07.821Z,0.9
2022-08-03T13:47:10.710Z,0.4
2022-08-03T13:49:12.116Z,0.8
2022-08-03T13:51:22.051Z,0.6
2022-08-03T13:53:18.412Z,0.8
2022-08-03T13:55:19.874Z,1
2022-08-03T13:59:22.732Z,0.7
2022-08-03T14:01:54.270Z,0.6
2022-08-03T14:07:31.989Z,1
2022-08-03T14:09:33.353Z,0.6
2022-08-03T14:12:07.741Z,0.8
2022-08-03T14:13:58.000Z,0.9
2022-08-03T14:15:59.449Z,0.8
2022-08-03T14:18:04.325Z,0.8
2022-08-03T14:20:25.965Z,0.7
2022-08-03T14:22:07.252Z,0.8
2022-08-03T14:24:08.637Z,0.7
2022-08-03T14:26:10.073Z,0.5
2022-08-03T14:28:11.494Z,0.7
2022-08-03T14:30:12.911Z,0.6
2022-08-03T14:32:17.823Z,0.5
2022-08-03T14:34:19.245Z,0.6
2022-08-03T14:36:20.668Z,0.7
2022-08-03T14:40:23.561Z,0.8
2022-08-03T14:42:24.990Z,0.7
2022-08-03T14:44:26.432Z,0.9
2022-08-03T14:46:31.334Z,0.9
2022-08-03T14:50:33.637Z,0.8
2022-08-03T14:50:40.989Z,0.8
2022-08-03T14:52:35.644Z,1
2022-08-03T14:54:37.112Z,1.4
2022-08-03T14:56:38.639Z,0.5
2022-08-03T14:58:39.992Z,0.6
2022-08-03T15:00:44.952Z,0.9
2022-08-03T15:02:46.402Z,1
2022-08-03T15:05:50.339Z,0.4
2022-08-03T15:07:51.715Z,1.4
2022-08-03T15:09:53.138Z,0.7
2022-08-03T15:11:54.571Z,0.6
2022-08-03T15:13:59.475Z,0.7
2022-08-03T15:20:26.562Z,0.6
2022-08-03T15:22:05.382Z,0.7
2022-08-03T15:24:06.709Z,0.9
2022-08-03T15:26:30.898Z,0.5
2022-08-03T15:28:12.986Z,0.7
2022-08-03T15:30:14.417Z,1.2
2022-08-03T15:34:17.285Z,1.4
2022-08-03T15:36:18.701Z,0.8
2022-08-03T15:40:21.544Z,1.1
2022-08-03T15:50:32.129Z,0.6
2022-08-03T15:52:33.542Z,0.5
2022-08-03T15:54:34.962Z,1.1
2022-08-03T15:56:39.867Z,0.8
2022-08-03T16:01:45.190Z,0.5
2022-08-03T16:03:46.599Z,0.6
2022-08-03T16:11:55.766Z,1
2022-08-03T16:14:13.796Z,0.5
2022-08-03T16:15:58.651Z,0.6
2022-08-03T16:18:00.125Z,0.4
2022-08-03T16:22:03.193Z,0.3
2022-08-03T16:30:12.199Z,0.8
2022-08-03T16:34:15.113Z,0.4
2022-08-03T16:36:16.561Z,0.7
2022-08-03T16:38:21.495Z,0.6
2022-08-03T16:42:24.355Z,0.9
2022-08-03T16:44:25.941Z,0.8
2022-08-03T16:46:27.377Z,0.7
2022-08-03T16:50:30.197Z,1
2022-08-03T16:52:35.056Z,0.6
2022-08-03T16:54:36.503Z,0.8
2022-08-03T16:57:59.441Z,0.7
2022-08-03T16:59:41.854Z,1
2022-08-03T17:01:43.359Z,0.7
2022-08-03T17:04:01.475Z,0.4
2022-08-03T17:07:53.911Z,0.9
2022-08-03T17:09:52.640Z,0.9
2022-08-03T17:11:54.076Z,0.6
2022-08-03T17:13:55.527Z,0.7
2022-08-03T17:17:58.450Z,0.9
2022-08-03T17:20:07.884Z,0.6
2022-08-03T17:22:04.966Z,0.5
2022-08-03T17:24:12.259Z,0.3
2022-08-03T17:26:16.035Z,0.5
2022-08-03T17:28:50.492Z,0.6
2022-08-03T17:30:10.702Z,0.6
2022-08-03T17:32:17.613Z,0.9
2022-08-03T17:36:18.619Z,0.7
2022-08-03T17:38:22.799Z,0.5
2022-08-03T17:40:21.566Z,0.7
2022-08-03T17:42:31.123Z,0.7
2022-08-03T17:46:26.037Z,0.9
2022-08-03T17:50:32.682Z,0.9
2022-08-03T17:52:34.316Z,1.2
2022-08-03T17:55:57.870Z,0.7
2022-08-03T17:56:59.444Z,1
2022-08-03T17:59:00.944Z,0.8
2022-08-03T18:02:00.352Z,1
2022-08-03T18:03:07.761Z,0.5
2022-08-03T18:05:16.440Z,0.8
2022-08-03T18:07:11.890Z,0.8
2022-08-03T18:11:14.409Z,0.6
2022-08-03T18:13:15.817Z,0.7
2022-08-03T18:15:22.142Z,0.8
2022-08-03T18:20:01.100Z,0.7
2022-08-03T18:21:25.729Z,0.6
2022-08-03T18:25:45.669Z,1
2022-08-03T18:27:45.895Z,0.4
2022-08-03T18:29:35.853Z,1.1
2022-08-03T18:32:03.529Z,1
2022-08-03T18:34:17.506Z,1.1
2022-08-03T18:37:52.211Z,1.1
2022-08-03T18:41:46.586Z,1
2022-08-03T18:47:54.295Z,0.7
2022-08-03T18:48:56.916Z,0.5
2022-08-03T18:53:00.483Z,0.7
2022-08-03T18:57:07.113Z,1.3
2022-08-03T19:01:58.494Z,1.1
2022-08-03T19:05:13.850Z,1.1
2022-08-03T19:07:15.683Z,0.9
2022-08-03T19:09:17.196Z,1.1
2022-08-03T19:11:27.894Z,0.8
2022-08-03T19:13:30.865Z,1.5
2022-08-03T19:15:37.012Z,0.9
2022-08-03T19:19:43.481Z,0.8
2022-08-03T19:21:32.437Z,0.8
2022-08-03T19:25:39.369Z,1.1
2022-08-03T19:45:00.901Z,1.4
2022-08-03T19:47:02.596Z,1.2
2022-08-03T19:49:04.341Z,0.6
2022-08-03T19:51:12.224Z,1.3
2022-08-03T19:53:11.692Z,0.9
2022-08-03T19:55:12.978Z,1.1
2022-08-03T19:57:15.880Z,1.1
2022-08-03T20:01:19.236Z,1
2022-08-03T20:03:21.921Z,1
2022-08-03T20:05:21.501Z,1
2022-08-03T20:07:26.749Z,0.8
2022-08-03T20:09:30.527Z,0.8
2022-08-03T20:11:30.152Z,1.2
2022-08-03T20:13:31.857Z,2
2022-08-03T20:21:42.258Z,1.3
2022-08-03T20:24:01.687Z,2.1
2022-08-03T20:25:57.596Z,1.4
2022-08-03T20:30:07.586Z,1.5
2022-08-03T20:31:50.823Z,2.7
2022-08-03T20:33:52.582Z,1.6
2022-08-03T20:37:59.515Z,1.6
2022-08-03T20:41:03.845Z,1.2
2022-08-03T20:49:14.352Z,1.1
2022-08-03T20:51:20.183Z,1.1
2022-08-03T20:53:22.027Z,1.7
2022-08-03T20:55:47.229Z,1.3
2022-08-03T20:59:22.982Z,2
2022-08-03T21:08:04.402Z,1.9
2022-08-03T21:09:40.042Z,1.5
2022-08-03T21:11:41.611Z,2
2022-08-03T21:13:02.300Z,1.2
2022-08-03T21:13:03.794Z,1.4
2022-08-03T21:13:04.889Z,0.7
2022-08-03T21:13:07.896Z,2.2
2022-08-03T21:13:13.426Z,1.7
2022-08-03T21:13:38.686Z,1.5
2022-08-03T21:17:46.169Z,1.9
2022-08-03T21:19:51.691Z,1.3
2022-08-03T21:21:49.221Z,9.2
2022-08-03T21:23:50.962Z,2.5
2022-08-03T21:25:52.718Z,2
2022-08-03T21:27:54.486Z,2.2
2022-08-03T21:32:01.640Z,1.5
2022-08-03T21:34:03.320Z,2.1
2022-08-03T21:36:06.605Z,2
2022-08-03T21:38:29.651Z,2.9
2022-08-03T21:42:32.544Z,2.3
2022-08-03T21:50:43.113Z,2.1
2022-08-03T21:52:44.875Z,2.8
2022-08-03T21:54:46.631Z,1.9
2022-08-03T21:56:48.435Z,2.3
2022-08-03T21:58:53.693Z,2.2
2022-08-03T22:00:55.443Z,2.1
2022-08-03T22:02:58.121Z,2.7
2022-08-03T22:07:00.740Z,2
2022-08-03T22:11:04.634Z,2.5
2022-08-03T22:15:15.026Z,1.8
2022-08-03T22:17:13.122Z,1.8
2022-08-03T22:19:14.886Z,2.3
2022-08-03T22:27:25.468Z,2.6
2022-08-03T22:32:31.649Z,2.5
2022-08-03T22:34:33.435Z,2.2
2022-08-03T22:36:35.212Z,3.4
2022-08-03T22:38:36.979Z,4.2
2022-08-03T22:40:42.238Z,5.4
2022-08-03T22:44:45.802Z,2.4
2022-08-03T22:52:52.908Z,2.8
2022-08-03T22:54:58.200Z,2.7
2022-08-03T22:59:01.764Z,2
2022-08-03T23:01:03.525Z,2.2
2022-08-03T23:19:25.379Z,2.1
2022-08-03T23:25:31.842Z,2.5
2022-08-03T23:27:33.653Z,2.7
2022-08-03T23:28:36.246Z,2.7
2022-08-03T23:34:41.586Z,2.7
2022-08-03T23:36:46.853Z,2.6
2022-08-03T23:38:48.623Z,2.5
2022-08-03T23:40:51.351Z,2.6
2022-08-03T23:42:52.197Z,1.9
2022-08-03T23:44:53.974Z,2.4
2022-08-03T23:46:55.731Z,2.8
2022-08-03T23:48:57.527Z,2
2022-08-03T23:51:02.799Z,2.9
2022-08-03T23:53:04.608Z,2.8
2022-08-03T23:55:06.354Z,2.7
2022-08-03T23:57:08.140Z,3.1
